sensor_id;sensor_type;location;lat;lon;timestamp;P1;durP1;ratioP1;P2;durP2;ratioP2
42912;SDS011;50720;54.324;18.558;2022-11-18T00:00:54;10.70;;;6.47;;
42912;SDS011;50720;54.324;18.558;2022-11-18T00:03:24;11.85;;;5.40;;
42912;SDS011;50720;54.324;18.558;2022-11-18T00:05:54;4.53;;;2.25;;
42912;SDS011;50720;54.324;18.558;2022-11-18T00:08:25;4.88;;;2.33;;
42912;SDS011;50720;54.324;18.558;2022-11-18T00:10:57;9.00;;;2.80;;
42912;SDS011;50720;54.324;18.558;2022-11-18T00:13:27;2.13;;;0.75;;
42912;SDS011;50720;54.324;18.558;2022-11-18T00:16:13;1.70;;;1.20;;
42912;SDS011;50720;54.324;18.558;2022-11-18T00:18:43;0.95;;;0.55;;
42912;SDS011;50720;54.324;18.558;2022-11-18T00:21:13;1.13;;;0.73;;
42912;SDS011;50720;54.324;18.558;2022-11-18T00:23:42;1.67;;;0.80;;
42912;SDS011;50720;54.324;18.558;2022-11-18T00:26:14;2.10;;;0.50;;
42912;SDS011;50720;54.324;18.558;2022-11-18T00:28:44;3.35;;;0.73;;
42912;SDS011;50720;54.324;18.558;2022-11-18T00:31:13;0.98;;;0.52;;
42912;SDS011;50720;54.324;18.558;2022-11-18T00:33:43;2.67;;;0.70;;
42912;SDS011;50720;54.324;18.558;2022-11-18T00:36:13;1.50;;;0.80;;
42912;SDS011;50720;54.324;18.558;2022-11-18T00:38:43;2.17;;;1.58;;
42912;SDS011;50720;54.324;18.558;2022-11-18T00:41:14;1.95;;;0.85;;
42912;SDS011;50720;54.324;18.558;2022-11-18T00:43:44;0.45;;;0.30;;
42912;SDS011;50720;54.324;18.558;2022-11-18T00:46:13;1.05;;;0.60;;
42912;SDS011;50720;54.324;18.558;2022-11-18T00:48:43;4.15;;;1.02;;
42912;SDS011;50720;54.324;18.558;2022-11-18T00:51:14;1.38;;;0.70;;
42912;SDS011;50720;54.324;18.558;2022-11-18T00:53:45;1.65;;;0.60;;
42912;SDS011;50720;54.324;18.558;2022-11-18T00:58:46;2.37;;;0.77;;
42912;SDS011;50720;54.324;18.558;2022-11-18T01:01:17;0.75;;;0.57;;
42912;SDS011;50720;54.324;18.558;2022-11-18T01:03:47;3.50;;;0.80;;
42912;SDS011;50720;54.324;18.558;2022-11-18T01:06:17;1.70;;;0.90;;
42912;SDS011;50720;54.324;18.558;2022-11-18T01:08:47;4.95;;;1.10;;
42912;SDS011;50720;54.324;18.558;2022-11-18T01:11:18;1.67;;;1.10;;
42912;SDS011;50720;54.324;18.558;2022-11-18T01:14:05;3.75;;;1.33;;
42912;SDS011;50720;54.324;18.558;2022-11-18T01:16:35;3.30;;;1.42;;
42912;SDS011;50720;54.324;18.558;2022-11-18T01:19:04;1.63;;;1.02;;
42912;SDS011;50720;54.324;18.558;2022-11-18T01:21:35;3.17;;;1.40;;
42912;SDS011;50720;54.324;18.558;2022-11-18T01:24:04;2.70;;;1.15;;
42912;SDS011;50720;54.324;18.558;2022-11-18T01:26:36;2.22;;;1.45;;
42912;SDS011;50720;54.324;18.558;2022-11-18T01:31:36;3.70;;;1.70;;
42912;SDS011;50720;54.324;18.558;2022-11-18T01:34:26;3.08;;;1.67;;
42912;SDS011;50720;54.324;18.558;2022-11-18T01:36:57;4.07;;;1.95;;
42912;SDS011;50720;54.324;18.558;2022-11-18T01:39:26;3.08;;;1.42;;
42912;SDS011;50720;54.324;18.558;2022-11-18T01:41:59;3.85;;;1.92;;
42912;SDS011;50720;54.324;18.558;2022-11-18T01:47:17;2.92;;;1.65;;
42912;SDS011;50720;54.324;18.558;2022-11-18T01:49:48;5.53;;;2.03;;
42912;SDS011;50720;54.324;18.558;2022-11-18T01:52:19;4.03;;;2.45;;
42912;SDS011;50720;54.324;18.558;2022-11-18T01:54:49;4.30;;;1.80;;
42912;SDS011;50720;54.324;18.558;2022-11-18T01:57:24;5.38;;;2.35;;
42912;SDS011;50720;54.324;18.558;2022-11-18T01:59:56;4.95;;;3.33;;
42912;SDS011;50720;54.324;18.558;2022-11-18T02:02:30;3.13;;;1.85;;
42912;SDS011;50720;54.324;18.558;2022-11-18T02:05:03;3.72;;;2.05;;
42912;SDS011;50720;54.324;18.558;2022-11-18T02:07:36;5.22;;;2.38;;
42912;SDS011;50720;54.324;18.558;2022-11-18T02:10:15;5.05;;;2.30;;
42912;SDS011;50720;54.324;18.558;2022-11-18T02:12:49;4.45;;;1.88;;
42912;SDS011;50720;54.324;18.558;2022-11-18T02:15:22;5.03;;;2.55;;
42912;SDS011;50720;54.324;18.558;2022-11-18T02:20:35;6.63;;;2.55;;
42912;SDS011;50720;54.324;18.558;2022-11-18T02:29:24;4.43;;;2.40;;
42912;SDS011;50720;54.324;18.558;2022-11-18T02:31:57;7.05;;;3.60;;
42912;SDS011;50720;54.324;18.558;2022-11-18T02:34:32;5.97;;;2.90;;
42912;SDS011;50720;54.324;18.558;2022-11-18T02:37:10;6.45;;;2.65;;
42912;SDS011;50720;54.324;18.558;2022-11-18T02:39:46;6.10;;;2.70;;
42912;SDS011;50720;54.324;18.558;2022-11-18T02:42:22;5.07;;;2.45;;
42912;SDS011;50720;54.324;18.558;2022-11-18T02:44:56;8.35;;;3.05;;
42912;SDS011;50720;54.324;18.558;2022-11-18T02:47:30;8.85;;;3.40;;
42912;SDS011;50720;54.324;18.558;2022-11-18T02:50:05;7.10;;;2.88;;
42912;SDS011;50720;54.324;18.558;2022-11-18T02:52:38;7.78;;;3.03;;
42912;SDS011;50720;54.324;18.558;2022-11-18T02:55:10;6.22;;;2.33;;
42912;SDS011;50720;54.324;18.558;2022-11-18T02:57:42;5.65;;;2.70;;
42912;SDS011;50720;54.324;18.558;2022-11-18T03:02:48;5.78;;;2.97;;
42912;SDS011;50720;54.324;18.558;2022-11-18T03:05:19;6.93;;;3.55;;
42912;SDS011;50720;54.324;18.558;2022-11-18T03:07:55;6.32;;;3.40;;
42912;SDS011;50720;54.324;18.558;2022-11-18T03:10:32;6.28;;;3.33;;
42912;SDS011;50720;54.324;18.558;2022-11-18T03:13:09;6.93;;;3.38;;
42912;SDS011;50720;54.324;18.558;2022-11-18T03:15:47;7.90;;;3.33;;
42912;SDS011;50720;54.324;18.558;2022-11-18T03:18:25;6.47;;;3.08;;
42912;SDS011;50720;54.324;18.558;2022-11-18T03:21:01;7.43;;;3.67;;
42912;SDS011;50720;54.324;18.558;2022-11-18T03:23:37;6.80;;;3.28;;
42912;SDS011;50720;54.324;18.558;2022-11-18T03:26:10;8.82;;;3.88;;
42912;SDS011;50720;54.324;18.558;2022-11-18T03:28:45;8.68;;;4.22;;
42912;SDS011;50720;54.324;18.558;2022-11-18T03:31:20;7.60;;;3.60;;
42912;SDS011;50720;54.324;18.558;2022-11-18T03:33:55;6.97;;;3.95;;
42912;SDS011;50720;54.324;18.558;2022-11-18T03:36:31;8.32;;;3.97;;
42912;SDS011;50720;54.324;18.558;2022-11-18T03:39:05;9.07;;;4.35;;
42912;SDS011;50720;54.324;18.558;2022-11-18T03:41:39;8.65;;;4.00;;
42912;SDS011;50720;54.324;18.558;2022-11-18T03:44:12;11.02;;;4.53;;
42912;SDS011;50720;54.324;18.558;2022-11-18T03:46:48;9.35;;;4.30;;
42912;SDS011;50720;54.324;18.558;2022-11-18T03:49:24;7.70;;;3.78;;
42912;SDS011;50720;54.324;18.558;2022-11-18T03:52:00;9.68;;;4.28;;
42912;SDS011;50720;54.324;18.558;2022-11-18T03:54:34;11.32;;;4.15;;
42912;SDS011;50720;54.324;18.558;2022-11-18T03:57:09;9.90;;;4.93;;
42912;SDS011;50720;54.324;18.558;2022-11-18T03:59:43;8.20;;;4.15;;
42912;SDS011;50720;54.324;18.558;2022-11-18T04:02:18;7.32;;;3.88;;
42912;SDS011;50720;54.324;18.558;2022-11-18T04:04:50;7.47;;;3.75;;
42912;SDS011;50720;54.324;18.558;2022-11-18T04:07:23;8.98;;;4.80;;
42912;SDS011;50720;54.324;18.558;2022-11-18T04:09:59;10.50;;;4.57;;
42912;SDS011;50720;54.324;18.558;2022-11-18T04:12:37;13.13;;;4.72;;
42912;SDS011;50720;54.324;18.558;2022-11-18T04:15:11;9.00;;;3.63;;
42912;SDS011;50720;54.324;18.558;2022-11-18T04:17:43;7.03;;;4.40;;
42912;SDS011;50720;54.324;18.558;2022-11-18T04:20:12;9.23;;;4.93;;
42912;SDS011;50720;54.324;18.558;2022-11-18T04:22:45;8.55;;;3.85;;
42912;SDS011;50720;54.324;18.558;2022-11-18T04:25:15;9.25;;;4.63;;
42912;SDS011;50720;54.324;18.558;2022-11-18T04:27:45;7.47;;;4.22;;
42912;SDS011;50720;54.324;18.558;2022-11-18T04:30:15;9.38;;;4.28;;
42912;SDS011;50720;54.324;18.558;2022-11-18T04:32:47;9.35;;;4.75;;
42912;SDS011;50720;54.324;18.558;2022-11-18T04:35:17;12.43;;;4.70;;
42912;SDS011;50720;54.324;18.558;2022-11-18T04:37:46;9.90;;;4.95;;
42912;SDS011;50720;54.324;18.558;2022-11-18T04:40:16;8.07;;;3.97;;
42912;SDS011;50720;54.324;18.558;2022-11-18T04:42:46;9.47;;;4.73;;
42912;SDS011;50720;54.324;18.558;2022-11-18T04:45:16;9.80;;;5.53;;
42912;SDS011;50720;54.324;18.558;2022-11-18T04:47:48;6.95;;;4.75;;
42912;SDS011;50720;54.324;18.558;2022-11-18T04:50:18;8.32;;;4.15;;
42912;SDS011;50720;54.324;18.558;2022-11-18T04:52:48;7.57;;;4.05;;
42912;SDS011;50720;54.324;18.558;2022-11-18T04:55:18;10.02;;;4.93;;
42912;SDS011;50720;54.324;18.558;2022-11-18T04:57:48;7.93;;;4.97;;
42912;SDS011;50720;54.324;18.558;2022-11-18T05:00:17;9.40;;;5.22;;
42912;SDS011;50720;54.324;18.558;2022-11-18T05:02:51;8.85;;;5.32;;
42912;SDS011;50720;54.324;18.558;2022-11-18T05:05:20;8.88;;;4.07;;
42912;SDS011;50720;54.324;18.558;2022-11-18T05:07:50;9.45;;;4.95;;
42912;SDS011;50720;54.324;18.558;2022-11-18T05:10:19;8.10;;;4.22;;
42912;SDS011;50720;54.324;18.558;2022-11-18T05:12:49;15.15;;;8.60;;
42912;SDS011;50720;54.324;18.558;2022-11-18T05:15:19;13.82;;;7.65;;
42912;SDS011;50720;54.324;18.558;2022-11-18T05:17:52;9.85;;;5.22;;
42912;SDS011;50720;54.324;18.558;2022-11-18T05:20:22;8.63;;;4.00;;
42912;SDS011;50720;54.324;18.558;2022-11-18T05:22:52;6.68;;;3.97;;
42912;SDS011;50720;54.324;18.558;2022-11-18T05:25:21;9.02;;;4.70;;
42912;SDS011;50720;54.324;18.558;2022-11-18T05:27:51;9.43;;;4.97;;
42912;SDS011;50720;54.324;18.558;2022-11-18T05:30:21;8.40;;;4.57;;
42912;SDS011;50720;54.324;18.558;2022-11-18T05:32:52;7.35;;;4.28;;
42912;SDS011;50720;54.324;18.558;2022-11-18T05:37:51;7.85;;;3.80;;
42912;SDS011;50720;54.324;18.558;2022-11-18T05:40:20;6.95;;;4.07;;
42912;SDS011;50720;54.324;18.558;2022-11-18T05:42:50;8.03;;;4.27;;
42912;SDS011;50720;54.324;18.558;2022-11-18T05:45:36;7.18;;;3.67;;
42912;SDS011;50720;54.324;18.558;2022-11-18T05:48:08;8.02;;;4.63;;
42912;SDS011;50720;54.324;18.558;2022-11-18T05:50:37;8.00;;;4.50;;
42912;SDS011;50720;54.324;18.558;2022-11-18T05:53:08;7.72;;;3.65;;
42912;SDS011;50720;54.324;18.558;2022-11-18T05:55:38;7.07;;;3.63;;
42912;SDS011;50720;54.324;18.558;2022-11-18T05:58:12;10.63;;;5.30;;
42912;SDS011;50720;54.324;18.558;2022-11-18T06:00:42;5.28;;;3.47;;
42912;SDS011;50720;54.324;18.558;2022-11-18T06:03:16;5.95;;;3.30;;
42912;SDS011;50720;54.324;18.558;2022-11-18T06:05:57;5.82;;;2.90;;
42912;SDS011;50720;54.324;18.558;2022-11-18T06:08:30;6.88;;;3.22;;
42912;SDS011;50720;54.324;18.558;2022-11-18T06:11:02;5.05;;;3.08;;
42912;SDS011;50720;54.324;18.558;2022-11-18T06:13:35;7.30;;;3.22;;
42912;SDS011;50720;54.324;18.558;2022-11-18T06:16:08;5.20;;;3.03;;
42912;SDS011;50720;54.324;18.558;2022-11-18T06:18:43;4.95;;;2.15;;
42912;SDS011;50720;54.324;18.558;2022-11-18T06:21:13;8.52;;;3.30;;
42912;SDS011;50720;54.324;18.558;2022-11-18T06:23:43;7.13;;;2.63;;
42912;SDS011;50720;54.324;18.558;2022-11-18T06:26:13;5.07;;;2.47;;
42912;SDS011;50720;54.324;18.558;2022-11-18T06:28:44;3.47;;;1.83;;
42912;SDS011;50720;54.324;18.558;2022-11-18T06:31:15;3.33;;;1.67;;
42912;SDS011;50720;54.324;18.558;2022-11-18T06:33:46;3.55;;;1.83;;
42912;SDS011;50720;54.324;18.558;2022-11-18T06:36:16;3.80;;;1.80;;
42912;SDS011;50720;54.324;18.558;2022-11-18T06:38:45;2.40;;;1.50;;
42912;SDS011;50720;54.324;18.558;2022-11-18T06:41:15;3.08;;;1.67;;
42912;SDS011;50720;54.324;18.558;2022-11-18T06:43:45;4.43;;;3.53;;
42912;SDS011;50720;54.324;18.558;2022-11-18T06:46:14;5.43;;;1.40;;
42912;SDS011;50720;54.324;18.558;2022-11-18T06:49:04;1.65;;;0.90;;
42912;SDS011;50720;54.324;18.558;2022-11-18T06:51:34;7.07;;;5.82;;
42912;SDS011;50720;54.324;18.558;2022-11-18T06:54:06;1.50;;;1.15;;
42912;SDS011;50720;54.324;18.558;2022-11-18T06:56:37;3.50;;;0.80;;
42912;SDS011;50720;54.324;18.558;2022-11-18T06:59:07;1.50;;;1.00;;
42912;SDS011;50720;54.324;18.558;2022-11-18T07:01:37;4.38;;;1.08;;
42912;SDS011;50720;54.324;18.558;2022-11-18T07:04:10;2.08;;;1.10;;
42912;SDS011;50720;54.324;18.558;2022-11-18T07:06:40;2.92;;;1.33;;
42912;SDS011;50720;54.324;18.558;2022-11-18T07:09:10;1.83;;;0.98;;
42912;SDS011;50720;54.324;18.558;2022-11-18T07:11:40;2.53;;;0.65;;
42912;SDS011;50720;54.324;18.558;2022-11-18T07:14:11;1.93;;;0.60;;
42912;SDS011;50720;54.324;18.558;2022-11-18T07:16:41;2.78;;;0.80;;
42912;SDS011;50720;54.324;18.558;2022-11-18T07:19:13;2.28;;;0.63;;
42912;SDS011;50720;54.324;18.558;2022-11-18T07:21:43;2.95;;;0.80;;
42912;SDS011;50720;54.324;18.558;2022-11-18T07:24:14;2.45;;;1.38;;
42912;SDS011;50720;54.324;18.558;2022-11-18T07:26:43;3.40;;;1.15;;
42912;SDS011;50720;54.324;18.558;2022-11-18T07:29:14;2.90;;;1.40;;
42912;SDS011;50720;54.324;18.558;2022-11-18T07:31:43;0.88;;;0.68;;
42912;SDS011;50720;54.324;18.558;2022-11-18T07:34:16;1.40;;;0.98;;
42912;SDS011;50720;54.324;18.558;2022-11-18T07:36:46;1.13;;;0.60;;
42912;SDS011;50720;54.324;18.558;2022-11-18T07:39:16;2.17;;;0.93;;
42912;SDS011;50720;54.324;18.558;2022-11-18T07:41:46;1.88;;;1.25;;
42912;SDS011;50720;54.324;18.558;2022-11-18T07:44:16;1.42;;;0.65;;
42912;SDS011;50720;54.324;18.558;2022-11-18T07:46:45;2.22;;;1.05;;
42912;SDS011;50720;54.324;18.558;2022-11-18T07:49:17;1.48;;;0.68;;
42912;SDS011;50720;54.324;18.558;2022-11-18T07:51:46;2.90;;;0.88;;
42912;SDS011;50720;54.324;18.558;2022-11-18T07:54:17;3.92;;;0.73;;
42912;SDS011;50720;54.324;18.558;2022-11-18T07:56:46;1.33;;;0.52;;
42912;SDS011;50720;54.324;18.558;2022-11-18T07:59:16;5.15;;;0.77;;
42912;SDS011;50720;54.324;18.558;2022-11-18T08:01:46;1.13;;;0.63;;
42912;SDS011;50720;54.324;18.558;2022-11-18T08:04:18;0.77;;;0.50;;
42912;SDS011;50720;54.324;18.558;2022-11-18T08:09:17;2.65;;;0.47;;
42912;SDS011;50720;54.324;18.558;2022-11-18T08:11:46;6.55;;;2.65;;
42912;SDS011;50720;54.324;18.558;2022-11-18T08:14:17;2.78;;;0.63;;
42912;SDS011;50720;54.324;18.558;2022-11-18T08:16:48;2.97;;;0.88;;
42912;SDS011;50720;54.324;18.558;2022-11-18T08:19:20;1.67;;;0.93;;
42912;SDS011;50720;54.324;18.558;2022-11-18T08:21:50;2.17;;;0.60;;
42912;SDS011;50720;54.324;18.558;2022-11-18T08:24:21;1.33;;;0.68;;
42912;SDS011;50720;54.324;18.558;2022-11-18T08:26:51;2.95;;;0.57;;
42912;SDS011;50720;54.324;18.558;2022-11-18T08:29:21;1.33;;;0.60;;
42912;SDS011;50720;54.324;18.558;2022-11-18T08:31:51;1.63;;;0.97;;
42912;SDS011;50720;54.324;18.558;2022-11-18T08:34:24;2.03;;;1.08;;
42912;SDS011;50720;54.324;18.558;2022-11-18T08:36:54;1.85;;;0.80;;
42912;SDS011;50720;54.324;18.558;2022-11-18T08:39:24;1.30;;;1.00;;
42912;SDS011;50720;54.324;18.558;2022-11-18T08:41:56;2.45;;;1.13;;
42912;SDS011;50720;54.324;18.558;2022-11-18T08:44:26;4.28;;;1.73;;
42912;SDS011;50720;54.324;18.558;2022-11-18T08:46:59;1.02;;;0.70;;
42912;SDS011;50720;54.324;18.558;2022-11-18T08:49:31;0.90;;;0.70;;
42912;SDS011;50720;54.324;18.558;2022-11-18T08:52:01;1.25;;;0.93;;
42912;SDS011;50720;54.324;18.558;2022-11-18T08:54:31;1.50;;;1.23;;
42912;SDS011;50720;54.324;18.558;2022-11-18T08:57:00;2.53;;;1.33;;
42912;SDS011;50720;54.324;18.558;2022-11-18T08:59:31;3.47;;;1.20;;
42912;SDS011;50720;54.324;18.558;2022-11-18T09:02:01;1.63;;;1.00;;
42912;SDS011;50720;54.324;18.558;2022-11-18T09:04:33;2.78;;;2.25;;
42912;SDS011;50720;54.324;18.558;2022-11-18T09:07:02;2.10;;;1.20;;
42912;SDS011;50720;54.324;18.558;2022-11-18T09:09:33;2.70;;;1.20;;
42912;SDS011;50720;54.324;18.558;2022-11-18T09:12:03;1.40;;;0.80;;
42912;SDS011;50720;54.324;18.558;2022-11-18T09:14:33;1.60;;;1.02;;
42912;SDS011;50720;54.324;18.558;2022-11-18T09:17:23;1.45;;;0.93;;
42912;SDS011;50720;54.324;18.558;2022-11-18T09:20:15;2.72;;;1.15;;
42912;SDS011;50720;54.324;18.558;2022-11-18T09:22:45;3.03;;;0.90;;
42912;SDS011;50720;54.324;18.558;2022-11-18T09:25:15;1.93;;;0.87;;
42912;SDS011;50720;54.324;18.558;2022-11-18T09:27:45;1.73;;;1.42;;
42912;SDS011;50720;54.324;18.558;2022-11-18T09:30:15;2.88;;;1.05;;
42912;SDS011;50720;54.324;18.558;2022-11-18T09:32:45;3.07;;;1.43;;
42912;SDS011;50720;54.324;18.558;2022-11-18T09:37:47;2.37;;;1.03;;
42912;SDS011;50720;54.324;18.558;2022-11-18T09:40:17;3.25;;;1.58;;
42912;SDS011;50720;54.324;18.558;2022-11-18T09:42:50;3.38;;;0.95;;
42912;SDS011;50720;54.324;18.558;2022-11-18T09:45:28;3.90;;;0.98;;
42912;SDS011;50720;54.324;18.558;2022-11-18T09:48:06;2.00;;;1.17;;
42912;SDS011;50720;54.324;18.558;2022-11-18T09:50:44;2.83;;;1.42;;
42912;SDS011;50720;54.324;18.558;2022-11-18T09:53:17;2.35;;;1.20;;
42912;SDS011;50720;54.324;18.558;2022-11-18T09:55:49;0.52;;;0.50;;
42912;SDS011;50720;54.324;18.558;2022-11-18T09:58:20;1.10;;;0.50;;
42912;SDS011;50720;54.324;18.558;2022-11-18T10:00:55;2.17;;;0.90;;
42912;SDS011;50720;54.324;18.558;2022-11-18T10:03:25;1.45;;;0.52;;
42912;SDS011;50720;54.324;18.558;2022-11-18T10:05:59;1.73;;;0.85;;
42912;SDS011;50720;54.324;18.558;2022-11-18T10:08:39;0.80;;;0.60;;
42912;SDS011;50720;54.324;18.558;2022-11-18T10:11:18;3.08;;;0.93;;
42912;SDS011;50720;54.324;18.558;2022-11-18T10:13:53;4.38;;;0.93;;
42912;SDS011;50720;54.324;18.558;2022-11-18T10:16:31;2.30;;;0.80;;
42912;SDS011;50720;54.324;18.558;2022-11-18T10:19:10;1.30;;;0.85;;
42912;SDS011;50720;54.324;18.558;2022-11-18T10:21:56;2.20;;;0.80;;
42912;SDS011;50720;54.324;18.558;2022-11-18T10:24:49;1.77;;;0.88;;
42912;SDS011;50720;54.324;18.558;2022-11-18T10:27:20;1.60;;;1.00;;
42912;SDS011;50720;54.324;18.558;2022-11-18T10:29:51;1.70;;;1.00;;
42912;SDS011;50720;54.324;18.558;2022-11-18T10:32:23;2.47;;;1.10;;
42912;SDS011;50720;54.324;18.558;2022-11-18T10:34:53;2.65;;;1.33;;
42912;SDS011;50720;54.324;18.558;2022-11-18T10:37:27;1.98;;;1.58;;
42912;SDS011;50720;54.324;18.558;2022-11-18T10:40:22;2.42;;;1.60;;
42912;SDS011;50720;54.324;18.558;2022-11-18T10:42:54;3.15;;;1.88;;
42912;SDS011;50720;54.324;18.558;2022-11-18T10:45:25;1.50;;;1.25;;
42912;SDS011;50720;54.324;18.558;2022-11-18T10:47:57;1.20;;;1.10;;
42912;SDS011;50720;54.324;18.558;2022-11-18T10:50:30;1.70;;;1.20;;
42912;SDS011;50720;54.324;18.558;2022-11-18T10:53:03;5.40;;;1.15;;
42912;SDS011;50720;54.324;18.558;2022-11-18T10:55:35;2.58;;;1.70;;
42912;SDS011;50720;54.324;18.558;2022-11-18T10:58:07;2.78;;;1.40;;
42912;SDS011;50720;54.324;18.558;2022-11-18T11:00:43;1.65;;;0.93;;
42912;SDS011;50720;54.324;18.558;2022-11-18T11:03:22;1.38;;;0.88;;
42912;SDS011;50720;54.324;18.558;2022-11-18T11:09:07;1.55;;;1.05;;
42912;SDS011;50720;54.324;18.558;2022-11-18T11:11:38;1.85;;;1.00;;
42912;SDS011;50720;54.324;18.558;2022-11-18T11:14:13;1.27;;;0.73;;
42912;SDS011;50720;54.324;18.558;2022-11-18T11:16:49;1.45;;;0.80;;
42912;SDS011;50720;54.324;18.558;2022-11-18T11:19:27;3.10;;;1.10;;
42912;SDS011;50720;54.324;18.558;2022-11-18T11:22:03;1.55;;;1.15;;
42912;SDS011;50720;54.324;18.558;2022-11-18T11:24:38;2.10;;;1.23;;
42912;SDS011;50720;54.324;18.558;2022-11-18T11:27:11;1.63;;;1.10;;
42912;SDS011;50720;54.324;18.558;2022-11-18T11:30:22;2.97;;;1.60;;
42912;SDS011;50720;54.324;18.558;2022-11-18T11:32:58;3.10;;;1.43;;
42912;SDS011;50720;54.324;18.558;2022-11-18T11:35:48;1.73;;;0.98;;
42912;SDS011;50720;54.324;18.558;2022-11-18T11:38:28;2.35;;;1.30;;
42912;SDS011;50720;54.324;18.558;2022-11-18T11:41:09;3.60;;;1.40;;
42912;SDS011;50720;54.324;18.558;2022-11-18T11:43:53;1.67;;;1.05;;
42912;SDS011;50720;54.324;18.558;2022-11-18T11:46:39;2.42;;;1.23;;
42912;SDS011;50720;54.324;18.558;2022-11-18T11:49:40;2.35;;;1.55;;
42912;SDS011;50720;54.324;18.558;2022-11-18T11:52:18;3.13;;;1.80;;
42912;SDS011;50720;54.324;18.558;2022-11-18T11:54:58;3.55;;;1.92;;
42912;SDS011;50720;54.324;18.558;2022-11-18T11:57:45;2.03;;;1.63;;
42912;SDS011;50720;54.324;18.558;2022-11-18T12:00:32;3.15;;;1.80;;
42912;SDS011;50720;54.324;18.558;2022-11-18T12:03:15;2.85;;;1.33;;
42912;SDS011;50720;54.324;18.558;2022-11-18T12:06:00;2.50;;;1.55;;
42912;SDS011;50720;54.324;18.558;2022-11-18T12:08:30;5.60;;;1.63;;
42912;SDS011;50720;54.324;18.558;2022-11-18T12:11:02;2.80;;;1.42;;
42912;SDS011;50720;54.324;18.558;2022-11-18T12:13:45;3.70;;;1.23;;
42912;SDS011;50720;54.324;18.558;2022-11-18T12:16:23;2.42;;;1.25;;
42912;SDS011;50720;54.324;18.558;2022-11-18T12:18:59;2.15;;;1.38;;
42912;SDS011;50720;54.324;18.558;2022-11-18T12:24:32;2.38;;;1.33;;
42912;SDS011;50720;54.324;18.558;2022-11-18T12:30:17;3.58;;;1.60;;
42912;SDS011;50720;54.324;18.558;2022-11-18T12:32:46;1.75;;;1.40;;
42912;SDS011;50720;54.324;18.558;2022-11-18T12:35:25;2.13;;;1.90;;
42912;SDS011;50720;54.324;18.558;2022-11-18T12:37:57;3.00;;;1.50;;
42912;SDS011;50720;54.324;18.558;2022-11-18T12:40:32;1.95;;;1.45;;
42912;SDS011;50720;54.324;18.558;2022-11-18T12:43:08;1.48;;;1.27;;
42912;SDS011;50720;54.324;18.558;2022-11-18T12:55:31;3.65;;;1.60;;
42912;SDS011;50720;54.324;18.558;2022-11-18T12:58:19;5.93;;;1.67;;
42912;SDS011;50720;54.324;18.558;2022-11-18T13:01:02;5.07;;;1.40;;
42912;SDS011;50720;54.324;18.558;2022-11-18T13:03:36;3.28;;;2.42;;
42912;SDS011;50720;54.324;18.558;2022-11-18T13:06:11;5.15;;;1.52;;
42912;SDS011;50720;54.324;18.558;2022-11-18T13:08:54;2.67;;;1.85;;
42912;SDS011;50720;54.324;18.558;2022-11-18T13:11:26;2.63;;;1.65;;
42912;SDS011;50720;54.324;18.558;2022-11-18T13:14:14;2.83;;;1.88;;
42912;SDS011;50720;54.324;18.558;2022-11-18T13:17:02;2.72;;;1.35;;
42912;SDS011;50720;54.324;18.558;2022-11-18T13:20:20;5.03;;;1.88;;
42912;SDS011;50720;54.324;18.558;2022-11-18T13:22:51;2.83;;;1.58;;
42912;SDS011;50720;54.324;18.558;2022-11-18T13:25:39;3.38;;;1.00;;
42912;SDS011;50720;54.324;18.558;2022-11-18T13:28:15;1.95;;;0.88;;
42912;SDS011;50720;54.324;18.558;2022-11-18T13:30:54;3.38;;;1.40;;
42912;SDS011;50720;54.324;18.558;2022-11-18T13:33:28;2.25;;;1.75;;
42912;SDS011;50720;54.324;18.558;2022-11-18T13:36:10;3.08;;;1.40;;
42912;SDS011;50720;54.324;18.558;2022-11-18T13:38:53;2.08;;;1.48;;
42912;SDS011;50720;54.324;18.558;2022-11-18T13:41:24;4.15;;;1.48;;
42912;SDS011;50720;54.324;18.558;2022-11-18T13:44:10;2.13;;;1.40;;
42912;SDS011;50720;54.324;18.558;2022-11-18T13:46:45;1.92;;;1.30;;
42912;SDS011;50720;54.324;18.558;2022-11-18T13:49:18;1.63;;;1.10;;
42912;SDS011;50720;54.324;18.558;2022-11-18T13:51:57;2.30;;;1.10;;
42912;SDS011;50720;54.324;18.558;2022-11-18T13:54:26;1.73;;;1.20;;
42912;SDS011;50720;54.324;18.558;2022-11-18T13:56:57;1.75;;;1.40;;
42912;SDS011;50720;54.324;18.558;2022-11-18T13:59:27;2.35;;;1.20;;
42912;SDS011;50720;54.324;18.558;2022-11-18T14:01:58;2.47;;;2.13;;
42912;SDS011;50720;54.324;18.558;2022-11-18T14:04:28;2.42;;;1.27;;
42912;SDS011;50720;54.324;18.558;2022-11-18T14:07:23;2.00;;;1.30;;
42912;SDS011;50720;54.324;18.558;2022-11-18T14:09:55;2.33;;;1.48;;
42912;SDS011;50720;54.324;18.558;2022-11-18T14:12:28;5.57;;;1.95;;
42912;SDS011;50720;54.324;18.558;2022-11-18T14:15:12;3.67;;;1.73;;
42912;SDS011;50720;54.324;18.558;2022-11-18T14:17:50;3.80;;;1.83;;
42912;SDS011;50720;54.324;18.558;2022-11-18T14:20:22;5.15;;;1.67;;
42912;SDS011;50720;54.324;18.558;2022-11-18T14:22:55;3.60;;;2.30;;
42912;SDS011;50720;54.324;18.558;2022-11-18T14:25:27;4.55;;;2.05;;
42912;SDS011;50720;54.324;18.558;2022-11-18T14:28:08;6.55;;;2.13;;
42912;SDS011;50720;54.324;18.558;2022-11-18T14:30:54;5.68;;;2.15;;
42912;SDS011;50720;54.324;18.558;2022-11-18T14:33:25;3.80;;;2.22;;
42912;SDS011;50720;54.324;18.558;2022-11-18T14:35:56;3.47;;;1.83;;
42912;SDS011;50720;54.324;18.558;2022-11-18T14:38:34;6.53;;;1.65;;
42912;SDS011;50720;54.324;18.558;2022-11-18T14:41:28;4.65;;;2.00;;
42912;SDS011;50720;54.324;18.558;2022-11-18T14:44:16;3.70;;;2.30;;
42912;SDS011;50720;54.324;18.558;2022-11-18T14:46:48;4.30;;;1.75;;
42912;SDS011;50720;54.324;18.558;2022-11-18T14:49:21;4.97;;;1.77;;
42912;SDS011;50720;54.324;18.558;2022-11-18T14:51:52;6.00;;;2.00;;
42912;SDS011;50720;54.324;18.558;2022-11-18T14:54:24;4.50;;;2.15;;
42912;SDS011;50720;54.324;18.558;2022-11-18T14:56:54;5.57;;;2.75;;
42912;SDS011;50720;54.324;18.558;2022-11-18T14:59:28;5.60;;;1.85;;
42912;SDS011;50720;54.324;18.558;2022-11-18T15:01:58;4.38;;;1.65;;
42912;SDS011;50720;54.324;18.558;2022-11-18T15:04:28;3.03;;;1.65;;
42912;SDS011;50720;54.324;18.558;2022-11-18T15:06:57;4.40;;;1.60;;
42912;SDS011;50720;54.324;18.558;2022-11-18T15:09:29;2.65;;;1.23;;
42912;SDS011;50720;54.324;18.558;2022-11-18T15:11:58;2.03;;;1.25;;
42912;SDS011;50720;54.324;18.558;2022-11-18T15:14:30;2.08;;;1.13;;
42912;SDS011;50720;54.324;18.558;2022-11-18T15:17:01;3.35;;;1.40;;
42912;SDS011;50720;54.324;18.558;2022-11-18T15:22:00;6.82;;;1.50;;
42912;SDS011;50720;54.324;18.558;2022-11-18T15:24:32;6.78;;;1.70;;
42912;SDS011;50720;54.324;18.558;2022-11-18T15:27:01;2.83;;;1.30;;
42912;SDS011;50720;54.324;18.558;2022-11-18T15:29:32;4.38;;;2.25;;
42912;SDS011;50720;54.324;18.558;2022-11-18T15:32:01;3.30;;;1.73;;
42912;SDS011;50720;54.324;18.558;2022-11-18T15:34:32;4.05;;;2.08;;
42912;SDS011;50720;54.324;18.558;2022-11-18T15:37:01;3.45;;;1.90;;
42912;SDS011;50720;54.324;18.558;2022-11-18T15:39:33;7.33;;;2.00;;
42912;SDS011;50720;54.324;18.558;2022-11-18T15:42:03;5.22;;;2.80;;
42912;SDS011;50720;54.324;18.558;2022-11-18T15:44:33;6.95;;;3.22;;
42912;SDS011;50720;54.324;18.558;2022-11-18T15:47:02;6.05;;;3.28;;
42912;SDS011;50720;54.324;18.558;2022-11-18T15:49:32;5.57;;;3.03;;
42912;SDS011;50720;54.324;18.558;2022-11-18T15:52:01;4.28;;;2.50;;
42912;SDS011;50720;54.324;18.558;2022-11-18T15:54:36;3.88;;;2.28;;
42912;SDS011;50720;54.324;18.558;2022-11-18T15:57:06;5.13;;;2.63;;
42912;SDS011;50720;54.324;18.558;2022-11-18T15:59:36;2.85;;;2.20;;